sensor_id;sensor_type;location;lat;lon;timestamp;temperature;humidity
16929;DHT22;8581;47.334;11.190;2023-07-02T00:00:25;14.40;99.90
16929;DHT22;8581;47.334;11.190;2023-07-02T00:03:00;14.40;99.90
16929;DHT22;8581;47.334;11.190;2023-07-02T00:05:29;14.30;99.90
16929;DHT22;8581;47.334;11.190;2023-07-02T00:08:00;14.10;99.90
16929;DHT22;8581;47.334;11.190;2023-07-02T00:10:32;14.10;99.90
16929;DHT22;8581;47.334;11.190;2023-07-02T00:13:04;13.90;99.90
16929;DHT22;8581;47.334;11.190;2023-07-02T00:15:35;14.10;99.90
16929;DHT22;8581;47.334;11.190;2023-07-02T00:18:07;14.20;99.90
16929;DHT22;8581;47.334;11.190;2023-07-02T00:20:38;14.20;99.90
16929;DHT22;8581;47.334;11.190;2023-07-02T00:23:10;14.20;99.90
16929;DHT22;8581;47.334;11.190;2023-07-02T00:25:41;14.20;99.90
16929;DHT22;8581;47.334;11.190;2023-07-02T00:28:13;14.20;99.90
16929;DHT22;8581;47.334;11.190;2023-07-02T00:30:45;14.40;99.90
16929;DHT22;8581;47.334;11.190;2023-07-02T00:33:16;14.20;99.90
16929;DHT22;8581;47.334;11.190;2023-07-02T00:35:48;14.10;99.90
16929;DHT22;8581;47.334;11.190;2023-07-02T00:38:20;14.20;99.90
16929;DHT22;8581;47.334;11.190;2023-07-02T00:40:51;14.00;99.90
16929;DHT22;8581;47.334;11.190;2023-07-02T00:43:23;14.00;99.90
16929;DHT22;8581;47.334;11.190;2023-07-02T00:45:54;14.00;99.90
16929;DHT22;8581;47.334;11.190;2023-07-02T00:48:26;14.30;99.90
16929;DHT22;8581;47.334;11.190;2023-07-02T00:50:57;14.20;99.90
16929;DHT22;8581;47.334;11.190;2023-07-02T00:53:29;14.30;99.90
16929;DHT22;8581;47.334;11.190;2023-07-02T00:56:01;14.40;99.90
16929;DHT22;8581;47.334;11.190;2023-07-02T00:58:34;14.50;99.90
16929;DHT22;8581;47.334;11.190;2023-07-02T01:01:04;14.60;99.90
16929;DHT22;8581;47.334;11.190;2023-07-02T01:03:35;14.50;99.90
16929;DHT22;8581;47.334;11.190;2023-07-02T01:06:07;14.40;99.90
16929;DHT22;8581;47.334;11.190;2023-07-02T01:08:39;14.40;99.90
16929;DHT22;8581;47.334;11.190;2023-07-02T01:11:10;14.40;99.90
16929;DHT22;8581;47.334;11.190;2023-07-02T01:13:42;14.60;99.90
16929;DHT22;8581;47.334;11.190;2023-07-02T01:16:13;14.60;99.90
16929;DHT22;8581;47.334;11.190;2023-07-02T01:18:45;14.30;99.90
16929;DHT22;8581;47.334;11.190;2023-07-02T01:21:17;14.20;99.90
16929;DHT22;8581;47.334;11.190;2023-07-02T01:23:50;14.30;99.90
16929;DHT22;8581;47.334;11.190;2023-07-02T01:26:22;14.30;99.90
16929;DHT22;8581;47.334;11.190;2023-07-02T01:28:53;14.40;99.90
16929;DHT22;8581;47.334;11.190;2023-07-02T01:31:25;14.30;99.90
16929;DHT22;8581;47.334;11.190;2023-07-02T01:33:56;14.20;99.90
16929;DHT22;8581;47.334;11.190;2023-07-02T01:36:29;14.30;99.90
16929;DHT22;8581;47.334;11.190;2023-07-02T01:39:00;14.50;99.90
16929;DHT22;8581;47.334;11.190;2023-07-02T01:44:19;14.30;99.90
16929;DHT22;8581;47.334;11.190;2023-07-02T01:46:50;14.10;99.90
16929;DHT22;8581;47.334;11.190;2023-07-02T01:49:22;13.90;99.90
16929;DHT22;8581;47.334;11.190;2023-07-02T01:51:54;13.80;99.90
16929;DHT22;8581;47.334;11.190;2023-07-02T01:54:26;13.90;99.90
16929;DHT22;8581;47.334;11.190;2023-07-02T01:56:59;14.00;99.90
16929;DHT22;8581;47.334;11.190;2023-07-02T01:59:31;14.00;99.90
16929;DHT22;8581;47.334;11.190;2023-07-02T02:02:02;13.90;99.90
16929;DHT22;8581;47.334;11.190;2023-07-02T02:04:34;13.80;99.90
16929;DHT22;8581;47.334;11.190;2023-07-02T02:07:06;13.70;99.90
16929;DHT22;8581;47.334;11.190;2023-07-02T02:09:37;13.70;99.90
16929;DHT22;8581;47.334;11.190;2023-07-02T02:12:09;13.70;99.90
16929;DHT22;8581;47.334;11.190;2023-07-02T02:14:40;13.80;99.90
16929;DHT22;8581;47.334;11.190;2023-07-02T02:17:12;13.80;99.90
16929;DHT22;8581;47.334;11.190;2023-07-02T02:19:44;13.70;99.90
16929;DHT22;8581;47.334;11.190;2023-07-02T02:22:15;13.60;99.90
16929;DHT22;8581;47.334;11.190;2023-07-02T02:24:47;13.50;99.90
16929;DHT22;8581;47.334;11.190;2023-07-02T02:27:18;13.50;99.90
16929;DHT22;8581;47.334;11.190;2023-07-02T02:29:50;13.20;99.90
16929;DHT22;8581;47.334;11.190;2023-07-02T02:32:22;13.20;99.90
16929;DHT22;8581;47.334;11.190;2023-07-02T02:34:53;13.30;99.90
16929;DHT22;8581;47.334;11.190;2023-07-02T02:37:25;13.40;99.90
16929;DHT22;8581;47.334;11.190;2023-07-02T02:39:56;13.50;99.90
16929;DHT22;8581;47.334;11.190;2023-07-02T02:42:28;13.50;99.90
16929;DHT22;8581;47.334;11.190;2023-07-02T02:45:00;13.40;99.90
16929;DHT22;8581;47.334;11.190;2023-07-02T02:47:31;13.50;99.90
16929;DHT22;8581;47.334;11.190;2023-07-02T02:50:04;13.50;99.90
16929;DHT22;8581;47.334;11.190;2023-07-02T02:52:35;13.50;99.90
16929;DHT22;8581;47.334;11.190;2023-07-02T02:55:09;13.40;99.90
16929;DHT22;8581;47.334;11.190;2023-07-02T02:57:39;13.50;99.90
16929;DHT22;8581;47.334;11.190;2023-07-02T03:00:12;13.50;99.90
16929;DHT22;8581;47.334;11.190;2023-07-02T03:02:44;13.30;99.90
16929;DHT22;8581;47.334;11.190;2023-07-02T03:05:16;13.40;99.90
16929;DHT22;8581;47.334;11.190;2023-07-02T03:07:48;13.30;99.90
16929;DHT22;8581;47.334;11.190;2023-07-02T03:10:19;13.40;99.90
16929;DHT22;8581;47.334;11.190;2023-07-02T03:12:51;13.40;99.90
16929;DHT22;8581;47.334;11.190;2023-07-02T03:15:22;13.50;99.90
16929;DHT22;8581;47.334;11.190;2023-07-02T03:17:54;13.50;99.90
16929;DHT22;8581;47.334;11.190;2023-07-02T03:20:26;13.40;99.90
16929;DHT22;8581;47.334;11.190;2023-07-02T03:22:57;13.40;99.90
16929;DHT22;8581;47.334;11.190;2023-07-02T03:25:29;13.50;99.90
16929;DHT22;8581;47.334;11.190;2023-07-02T03:28:00;13.50;99.90
16929;DHT22;8581;47.334;11.190;2023-07-02T03:30:32;13.60;99.90
16929;DHT22;8581;47.334;11.190;2023-07-02T03:33:03;13.50;99.90
16929;DHT22;8581;47.334;11.190;2023-07-02T03:35:35;13.60;99.90
16929;DHT22;8581;47.334;11.190;2023-07-02T03:38:07;13.30;99.90
16929;DHT22;8581;47.334;11.190;2023-07-02T03:40:38;13.30;99.90
16929;DHT22;8581;47.334;11.190;2023-07-02T03:43:10;13.30;99.90
16929;DHT22;8581;47.334;11.190;2023-07-02T03:45:41;13.20;99.90
16929;DHT22;8581;47.334;11.190;2023-07-02T03:48:13;13.10;99.90
16929;DHT22;8581;47.334;11.190;2023-07-02T03:50:45;13.20;99.90
16929;DHT22;8581;47.334;11.190;2023-07-02T03:53:16;13.30;99.90
16929;DHT22;8581;47.334;11.190;2023-07-02T03:55:48;13.40;99.90
16929;DHT22;8581;47.334;11.190;2023-07-02T03:58:19;13.40;99.90
16929;DHT22;8581;47.334;11.190;2023-07-02T04:00:51;13.50;99.90
16929;DHT22;8581;47.334;11.190;2023-07-02T04:03:23;13.60;99.90
16929;DHT22;8581;47.334;11.190;2023-07-02T04:05:54;13.70;99.90
16929;DHT22;8581;47.334;11.190;2023-07-02T04:08:26;13.50;99.90
16929;DHT22;8581;47.334;11.190;2023-07-02T04:10:57;13.50;99.90
16929;DHT22;8581;47.334;11.190;2023-07-02T04:13:29;13.60;99.90
16929;DHT22;8581;47.334;11.190;2023-07-02T04:16:01;13.60;99.90
16929;DHT22;8581;47.334;11.190;2023-07-02T04:18:32;14.00;99.90
16929;DHT22;8581;47.334;11.190;2023-07-02T04:21:04;14.10;99.90
16929;DHT22;8581;47.334;11.190;2023-07-02T04:23:35;14.10;99.90
16929;DHT22;8581;47.334;11.190;2023-07-02T04:26:07;14.10;99.90
16929;DHT22;8581;47.334;11.190;2023-07-02T04:28:39;14.30;99.90
16929;DHT22;8581;47.334;11.190;2023-07-02T04:31:10;14.40;99.90
16929;DHT22;8581;47.334;11.190;2023-07-02T04:33:42;14.30;99.90
16929;DHT22;8581;47.334;11.190;2023-07-02T04:36:13;14.10;99.90
16929;DHT22;8581;47.334;11.190;2023-07-02T04:38:45;14.10;99.90
16929;DHT22;8581;47.334;11.190;2023-07-02T04:41:17;14.20;99.90
16929;DHT22;8581;47.334;11.190;2023-07-02T04:43:48;14.30;99.90
16929;DHT22;8581;47.334;11.190;2023-07-02T04:46:20;14.20;99.90
16929;DHT22;8581;47.334;11.190;2023-07-02T04:48:51;14.30;99.90
16929;DHT22;8581;47.334;11.190;2023-07-02T04:51:23;14.40;99.90
16929;DHT22;8581;47.334;11.190;2023-07-02T04:53:55;14.00;99.90
16929;DHT22;8581;47.334;11.190;2023-07-02T04:56:26;13.70;99.90
16929;DHT22;8581;47.334;11.190;2023-07-02T04:58:58;13.70;99.90
16929;DHT22;8581;47.334;11.190;2023-07-02T05:01:29;13.50;99.90
16929;DHT22;8581;47.334;11.190;2023-07-02T05:04:01;13.50;99.90
16929;DHT22;8581;47.334;11.190;2023-07-02T05:06:32;13.60;99.90
16929;DHT22;8581;47.334;11.190;2023-07-02T05:09:04;13.60;99.90
16929;DHT22;8581;47.334;11.190;2023-07-02T05:11:36;13.70;99.90
16929;DHT22;8581;47.334;11.190;2023-07-02T05:14:07;13.80;99.90
16929;DHT22;8581;47.334;11.190;2023-07-02T05:16:39;13.70;99.90
16929;DHT22;8581;47.334;11.190;2023-07-02T05:19:10;13.40;99.90
16929;DHT22;8581;47.334;11.190;2023-07-02T05:21:42;13.40;99.90
16929;DHT22;8581;47.334;11.190;2023-07-02T05:24:14;13.40;99.90
16929;DHT22;8581;47.334;11.190;2023-07-02T05:26:45;13.50;99.90
16929;DHT22;8581;47.334;11.190;2023-07-02T05:29:18;13.70;99.90
16929;DHT22;8581;47.334;11.190;2023-07-02T05:31:48;13.50;99.90
16929;DHT22;8581;47.334;11.190;2023-07-02T05:34:20;13.40;99.90
16929;DHT22;8581;47.334;11.190;2023-07-02T05:36:52;13.40;99.90
16929;DHT22;8581;47.334;11.190;2023-07-02T05:39:23;13.80;99.90
16929;DHT22;8581;47.334;11.190;2023-07-02T05:41:55;13.90;99.90
16929;DHT22;8581;47.334;11.190;2023-07-02T05:44:26;13.70;99.90
16929;DHT22;8581;47.334;11.190;2023-07-02T05:46:58;13.70;99.90
16929;DHT22;8581;47.334;11.190;2023-07-02T05:49:29;13.70;99.90
16929;DHT22;8581;47.334;11.190;2023-07-02T05:52:01;13.70;99.90
16929;DHT22;8581;47.334;11.190;2023-07-02T05:54:33;13.90;99.90
16929;DHT22;8581;47.334;11.190;2023-07-02T05:57:04;14.00;99.90
16929;DHT22;8581;47.334;11.190;2023-07-02T05:59:37;14.30;99.90
16929;DHT22;8581;47.334;11.190;2023-07-02T06:02:07;14.60;99.90
16929;DHT22;8581;47.334;11.190;2023-07-02T06:04:39;14.40;99.90
16929;DHT22;8581;47.334;11.190;2023-07-02T06:07:11;14.60;99.90
16929;DHT22;8581;47.334;11.190;2023-07-02T06:09:42;14.60;99.90
16929;DHT22;8581;47.334;11.190;2023-07-02T06:12:14;14.50;99.90
16929;DHT22;8581;47.334;11.190;2023-07-02T06:14:45;14.60;99.90
16929;DHT22;8581;47.334;11.190;2023-07-02T06:17:17;14.90;99.90
16929;DHT22;8581;47.334;11.190;2023-07-02T06:19:49;15.30;99.90
16929;DHT22;8581;47.334;11.190;2023-07-02T06:22:20;15.60;99.90
16929;DHT22;8581;47.334;11.190;2023-07-02T06:24:52;15.80;99.90
16929;DHT22;8581;47.334;11.190;2023-07-02T06:27:23;15.90;99.90
16929;DHT22;8581;47.334;11.190;2023-07-02T06:29:55;15.90;99.90
16929;DHT22;8581;47.334;11.190;2023-07-02T06:32:27;16.10;99.90
16929;DHT22;8581;47.334;11.190;2023-07-02T06:34:58;16.30;99.90
16929;DHT22;8581;47.334;11.190;2023-07-02T06:37:30;16.20;99.90
16929;DHT22;8581;47.334;11.190;2023-07-02T06:40:01;16.20;99.90
16929;DHT22;8581;47.334;11.190;2023-07-02T06:42:33;16.30;99.90
16929;DHT22;8581;47.334;11.190;2023-07-02T06:45:06;16.30;99.90
16929;DHT22;8581;47.334;11.190;2023-07-02T06:47:37;16.10;99.90
16929;DHT22;8581;47.334;11.190;2023-07-02T06:50:09;16.10;99.90
16929;DHT22;8581;47.334;11.190;2023-07-02T06:52:41;16.00;99.90
16929;DHT22;8581;47.334;11.190;2023-07-02T06:55:12;16.00;99.90
16929;DHT22;8581;47.334;11.190;2023-07-02T06:57:44;16.00;99.90
16929;DHT22;8581;47.334;11.190;2023-07-02T07:00:16;16.10;99.90
16929;DHT22;8581;47.334;11.190;2023-07-02T07:02:48;16.20;99.90
16929;DHT22;8581;47.334;11.190;2023-07-02T07:05:19;16.20;99.90
16929;DHT22;8581;47.334;11.190;2023-07-02T07:07:51;16.30;99.90
16929;DHT22;8581;47.334;11.190;2023-07-02T07:10:23;16.40;99.90
16929;DHT22;8581;47.334;11.190;2023-07-02T07:12:54;16.80;99.90
16929;DHT22;8581;47.334;11.190;2023-07-02T07:15:26;16.60;99.90
16929;DHT22;8581;47.334;11.190;2023-07-02T07:17:57;16.10;99.90
16929;DHT22;8581;47.334;11.190;2023-07-02T07:20:29;16.50;99.90
16929;DHT22;8581;47.334;11.190;2023-07-02T07:23:01;16.60;99.90
16929;DHT22;8581;47.334;11.190;2023-07-02T07:25:32;17.10;99.90
16929;DHT22;8581;47.334;11.190;2023-07-02T07:28:04;17.40;99.90
16929;DHT22;8581;47.334;11.190;2023-07-02T07:30:35;17.70;99.90
16929;DHT22;8581;47.334;11.190;2023-07-02T07:33:07;17.60;99.90
16929;DHT22;8581;47.334;11.190;2023-07-02T07:35:38;17.80;99.90
16929;DHT22;8581;47.334;11.190;2023-07-02T07:38:12;17.90;99.90
16929;DHT22;8581;47.334;11.190;2023-07-02T07:40:43;18.20;99.90
16929;DHT22;8581;47.334;11.190;2023-07-02T07:43:14;17.80;99.90
16929;DHT22;8581;47.334;11.190;2023-07-02T07:45:46;18.00;99.90
16929;DHT22;8581;47.334;11.190;2023-07-02T07:48:17;18.20;99.90
16929;DHT22;8581;47.334;11.190;2023-07-02T07:50:49;17.50;99.90
16929;DHT22;8581;47.334;11.190;2023-07-02T07:53:21;17.50;99.90
16929;DHT22;8581;47.334;11.190;2023-07-02T07:55:52;17.50;99.90
16929;DHT22;8581;47.334;11.190;2023-07-02T07:58:24;17.50;99.90
16929;DHT22;8581;47.334;11.190;2023-07-02T08:00:55;17.70;99.90
16929;DHT22;8581;47.334;11.190;2023-07-02T08:03:28;17.60;99.90
16929;DHT22;8581;47.334;11.190;2023-07-02T08:06:00;18.30;99.90
16929;DHT22;8581;47.334;11.190;2023-07-02T08:08:31;18.60;99.90
16929;DHT22;8581;47.334;11.190;2023-07-02T08:11:03;18.80;99.90
16929;DHT22;8581;47.334;11.190;2023-07-02T08:13:35;18.90;99.90
16929;DHT22;8581;47.334;11.190;2023-07-02T08:16:06;18.60;99.90
16929;DHT22;8581;47.334;11.190;2023-07-02T08:18:39;19.00;99.90
16929;DHT22;8581;47.334;11.190;2023-07-02T08:21:10;19.10;99.90
16929;DHT22;8581;47.334;11.190;2023-07-02T08:23:43;19.30;99.90
16929;DHT22;8581;47.334;11.190;2023-07-02T08:26:15;19.60;99.90
16929;DHT22;8581;47.334;11.190;2023-07-02T08:28:47;20.00;99.90
16929;DHT22;8581;47.334;11.190;2023-07-02T08:31:18;19.70;99.90
16929;DHT22;8581;47.334;11.190;2023-07-02T08:33:50;19.40;99.90
16929;DHT22;8581;47.334;11.190;2023-07-02T08:36:21;18.50;99.90
16929;DHT22;8581;47.334;11.190;2023-07-02T08:38:53;19.00;99.90
16929;DHT22;8581;47.334;11.190;2023-07-02T08:41:24;19.50;99.90
16929;DHT22;8581;47.334;11.190;2023-07-02T08:43:56;20.20;99.90
16929;DHT22;8581;47.334;11.190;2023-07-02T08:46:28;20.70;99.90
16929;DHT22;8581;47.334;11.190;2023-07-02T08:48:59;21.00;99.90
16929;DHT22;8581;47.334;11.190;2023-07-02T08:51:31;21.30;99.90
16929;DHT22;8581;47.334;11.190;2023-07-02T08:54:03;21.70;99.90
16929;DHT22;8581;47.334;11.190;2023-07-02T08:56:34;21.20;99.90
16929;DHT22;8581;47.334;11.190;2023-07-02T08:59:07;21.00;99.90
16929;DHT22;8581;47.334;11.190;2023-07-02T09:01:45;21.40;99.90
16929;DHT22;8581;47.334;11.190;2023-07-02T09:04:21;21.40;99.90
16929;DHT22;8581;47.334;11.190;2023-07-02T09:07:03;21.30;99.90
16929;DHT22;8581;47.334;11.190;2023-07-02T09:09:23;20.90;99.90
16929;DHT22;8581;47.334;11.190;2023-07-02T09:11:55;21.20;99.90
16929;DHT22;8581;47.334;11.190;2023-07-02T09:14:29;20.80;99.90
16929;DHT22;8581;47.334;11.190;2023-07-02T09:17:03;20.80;99.90
16929;DHT22;8581;47.334;11.190;2023-07-02T09:19:34;21.20;99.90
16929;DHT22;8581;47.334;11.190;2023-07-02T09:22:05;21.90;99.90
16929;DHT22;8581;47.334;11.190;2023-07-02T09:24:37;21.70;99.90
16929;DHT22;8581;47.334;11.190;2023-07-02T09:27:09;21.00;99.90
16929;DHT22;8581;47.334;11.190;2023-07-02T09:29:40;21.10;99.90
16929;DHT22;8581;47.334;11.190;2023-07-02T09:32:23;21.70;99.90
16929;DHT22;8581;47.334;11.190;2023-07-02T09:34:47;22.50;99.90
16929;DHT22;8581;47.334;11.190;2023-07-02T09:37:18;23.20;99.90
16929;DHT22;8581;47.334;11.190;2023-07-02T09:39:54;23.30;99.90
16929;DHT22;8581;47.334;11.190;2023-07-02T09:42:28;23.00;99.90
16929;DHT22;8581;47.334;11.190;2023-07-02T09:45:00;22.80;99.90
16929;DHT22;8581;47.334;11.190;2023-07-02T09:47:32;22.90;99.90
16929;DHT22;8581;47.334;11.190;2023-07-02T09:50:04;22.40;99.90
16929;DHT22;8581;47.334;11.190;2023-07-02T09:52:37;22.70;99.90
16929;DHT22;8581;47.334;11.190;2023-07-02T09:55:08;22.90;99.90
16929;DHT22;8581;47.334;11.190;2023-07-02T09:57:40;23.10;99.90
16929;DHT22;8581;47.334;11.190;2023-07-02T10:00:13;22.80;99.90
16929;DHT22;8581;47.334;11.190;2023-07-02T10:02:48;22.60;99.90
16929;DHT22;8581;47.334;11.190;2023-07-02T10:05:26;22.80;99.90
16929;DHT22;8581;47.334;11.190;2023-07-02T10:07:58;22.70;99.90
16929;DHT22;8581;47.334;11.190;2023-07-02T10:10:29;22.30;99.90
16929;DHT22;8581;47.334;11.190;2023-07-02T10:13:00;22.10;99.90
16929;DHT22;8581;47.334;11.190;2023-07-02T10:15:32;22.00;99.90
16929;DHT22;8581;47.334;11.190;2023-07-02T10:18:04;22.00;99.90
16929;DHT22;8581;47.334;11.190;2023-07-02T10:20:36;22.10;99.90
16929;DHT22;8581;47.334;11.190;2023-07-02T10:23:09;21.90;99.90
16929;DHT22;8581;47.334;11.190;2023-07-02T10:25:39;21.90;99.90
16929;DHT22;8581;47.334;11.190;2023-07-02T10:28:16;21.90;99.90
16929;DHT22;8581;47.334;11.190;2023-07-02T10:30:46;21.90;99.90
16929;DHT22;8581;47.334;11.190;2023-07-02T10:33:18;22.00;99.90
16929;DHT22;8581;47.334;11.190;2023-07-02T10:35:50;21.80;99.90
16929;DHT22;8581;47.334;11.190;2023-07-02T10:38:23;22.40;99.90
16929;DHT22;8581;47.334;11.190;2023-07-02T10:40:54;22.90;99.90
16929;DHT22;8581;47.334;11.190;2023-07-02T10:43:27;23.20;99.90
16929;DHT22;8581;47.334;11.190;2023-07-02T10:45:59;23.20;99.90
16929;DHT22;8581;47.334;11.190;2023-07-02T10:48:31;23.40;99.90
16929;DHT22;8581;47.334;11.190;2023-07-02T10:51:10;23.60;99.90
16929;DHT22;8581;47.334;11.190;2023-07-02T10:53:34;23.10;99.90
16929;DHT22;8581;47.334;11.190;2023-07-02T10:56:06;23.60;99.90
16929;DHT22;8581;47.334;11.190;2023-07-02T10:58:42;24.50;99.90
16929;DHT22;8581;47.334;11.190;2023-07-02T11:01:14;24.80;99.90
16929;DHT22;8581;47.334;11.190;2023-07-02T11:03:45;24.70;99.90
16929;DHT22;8581;47.334;11.190;2023-07-02T11:06:17;24.10;99.90
16929;DHT22;8581;47.334;11.190;2023-07-02T11:08:49;24.10;99.90
16929;DHT22;8581;47.334;11.190;2023-07-02T11:11:20;24.40;99.90
16929;DHT22;8581;47.334;11.190;2023-07-02T11:13:52;24.10;99.90
16929;DHT22;8581;47.334;11.190;2023-07-02T11:16:24;24.20;99.90
16929;DHT22;8581;47.334;11.190;2023-07-02T11:19:10;23.70;99.90
16929;DHT22;8581;47.334;11.190;2023-07-02T11:21:49;24.80;99.90
16929;DHT22;8581;47.334;11.190;2023-07-02T11:24:13;26.30;99.90
16929;DHT22;8581;47.334;11.190;2023-07-02T11:26:45;25.60;99.90
16929;DHT22;8581;47.334;11.190;2023-07-02T11:29:19;26.50;99.90
16929;DHT22;8581;47.334;11.190;2023-07-02T11:31:51;26.60;99.90
16929;DHT22;8581;47.334;11.190;2023-07-02T11:34:22;26.50;99.90
16929;DHT22;8581;47.334;11.190;2023-07-02T11:36:54;26.70;99.90
16929;DHT22;8581;47.334;11.190;2023-07-02T11:39:26;27.60;99.90
16929;DHT22;8581;47.334;11.190;2023-07-02T11:41:57;28.10;99.90
16929;DHT22;8581;47.334;11.190;2023-07-02T11:44:29;28.30;99.90
16929;DHT22;8581;47.334;11.190;2023-07-02T11:47:00;28.30;99.90
16929;DHT22;8581;47.334;11.190;2023-07-02T11:49:32;29.10;99.90
16929;DHT22;8581;47.334;11.190;2023-07-02T11:52:04;28.80;99.90
16929;DHT22;8581;47.334;11.190;2023-07-02T11:54:35;28.30;99.90
16929;DHT22;8581;47.334;11.190;2023-07-02T11:57:07;27.10;99.90
16929;DHT22;8581;47.334;11.190;2023-07-02T11:59:39;24.50;99.90
16929;DHT22;8581;47.334;11.190;2023-07-02T12:02:10;24.40;99.90
16929;DHT22;8581;47.334;11.190;2023-07-02T12:04:42;25.60;99.90
16929;DHT22;8581;47.334;11.190;2023-07-02T12:07:13;25.90;99.90
16929;DHT22;8581;47.334;11.190;2023-07-02T12:09:45;25.60;99.90
16929;DHT22;8581;47.334;11.190;2023-07-02T12:12:17;24.50;99.90
16929;DHT22;8581;47.334;11.190;2023-07-02T12:14:48;24.10;99.90
16929;DHT22;8581;47.334;11.190;2023-07-02T12:17:20;23.90;99.90
16929;DHT22;8581;47.334;11.190;2023-07-02T12:19:54;24.80;99.90
16929;DHT22;8581;47.334;11.190;2023-07-02T12:22:26;25.30;99.90
16929;DHT22;8581;47.334;11.190;2023-07-02T12:24:59;26.80;99.90
16929;DHT22;8581;47.334;11.190;2023-07-02T12:27:30;26.80;99.90
16929;DHT22;8581;47.334;11.190;2023-07-02T12:30:01;26.30;99.90
16929;DHT22;8581;47.334;11.190;2023-07-02T12:32:33;24.80;99.90
16929;DHT22;8581;47.334;11.190;2023-07-02T12:35:05;26.00;99.90
16929;DHT22;8581;47.334;11.190;2023-07-02T12:37:43;28.10;99.90
16929;DHT22;8581;47.334;11.190;2023-07-02T12:40:14;29.20;99.90
16929;DHT22;8581;47.334;11.190;2023-07-02T12:42:46;28.40;99.90
16929;DHT22;8581;47.334;11.190;2023-07-02T12:45:17;28.20;99.90
16929;DHT22;8581;47.334;11.190;2023-07-02T12:47:49;26.50;99.90
16929;DHT22;8581;47.334;11.190;2023-07-02T12:50:20;28.60;99.90
16929;DHT22;8581;47.334;11.190;2023-07-02T12:52:52;31.40;99.90
16929;DHT22;8581;47.334;11.190;2023-07-02T12:55:23;32.70;99.90
16929;DHT22;8581;47.334;11.190;2023-07-02T12:57:55;33.30;98.00
16929;DHT22;8581;47.334;11.190;2023-07-02T13:00:27;34.20;96.70
16929;DHT22;8581;47.334;11.190;2023-07-02T13:02:58;35.10;94.60
16929;DHT22;8581;47.334;11.190;2023-07-02T13:05:30;36.70;92.90
16929;DHT22;8581;47.334;11.190;2023-07-02T13:08:01;32.60;94.30
16929;DHT22;8581;47.334;11.190;2023-07-02T13:10:33;34.40;94.30
16929;DHT22;8581;47.334;11.190;2023-07-02T13:13:05;34.10;93.50
16929;DHT22;8581;47.334;11.190;2023-07-02T13:15:36;34.60;92.50
16929;DHT22;8581;47.334;11.190;2023-07-02T13:18:08;34.40;91.70
16929;DHT22;8581;47.334;11.190;2023-07-02T13:20:39;35.00;91.90
16929;DHT22;8581;47.334;11.190;2023-07-02T13:23:11;36.40;90.80
16929;DHT22;8581;47.334;11.190;2023-07-02T13:25:43;35.50;90.20
16929;DHT22;8581;47.334;11.190;2023-07-02T13:28:14;33.90;89.30
16929;DHT22;8581;47.334;11.190;2023-07-02T13:30:46;31.80;92.10
16929;DHT22;8581;47.334;11.190;2023-07-02T13:33:17;30.00;93.90
16929;DHT22;8581;47.334;11.190;2023-07-02T13:35:49;28.60;95.60
16929;DHT22;8581;47.334;11.190;2023-07-02T13:38:21;28.10;96.00
16929;DHT22;8581;47.334;11.190;2023-07-02T13:40:53;28.20;97.00
16929;DHT22;8581;47.334;11.190;2023-07-02T13:43:25;27.30;97.30
16929;DHT22;8581;47.334;11.190;2023-07-02T13:45:57;27.20;98.20
16929;DHT22;8581;47.334;11.190;2023-07-02T13:48:28;26.60;99.00
16929;DHT22;8581;47.334;11.190;2023-07-02T13:51:00;26.30;99.10
16929;DHT22;8581;47.334;11.190;2023-07-02T13:53:32;26.00;99.10
16929;DHT22;8581;47.334;11.190;2023-07-02T13:56:04;27.50;98.50
16929;DHT22;8581;47.334;11.190;2023-07-02T13:58:46;29.30;96.50
16929;DHT22;8581;47.334;11.190;2023-07-02T14:01:17;29.10;96.00
16929;DHT22;8581;47.334;11.190;2023-07-02T14:03:49;27.30;96.30
16929;DHT22;8581;47.334;11.190;2023-07-02T14:06:21;26.20;97.70
16929;DHT22;8581;47.334;11.190;2023-07-02T14:08:52;25.70;98.90
16929;DHT22;8581;47.334;11.190;2023-07-02T14:11:24;25.20;99.90
16929;DHT22;8581;47.334;11.190;2023-07-02T14:13:56;25.40;99.90
16929;DHT22;8581;47.334;11.190;2023-07-02T14:16:27;26.40;99.30
16929;DHT22;8581;47.334;11.190;2023-07-02T14:18:59;26.10;99.20
16929;DHT22;8581;47.334;11.190;2023-07-02T14:21:30;25.70;99.40
16929;DHT22;8581;47.334;11.190;2023-07-02T14:24:02;25.90;99.40
16929;DHT22;8581;47.334;11.190;2023-07-02T14:26:37;24.90;99.90
16929;DHT22;8581;47.334;11.190;2023-07-02T14:29:08;24.30;99.90
16929;DHT22;8581;47.334;11.190;2023-07-02T14:31:41;24.20;99.90
16929;DHT22;8581;47.334;11.190;2023-07-02T14:34:12;23.90;99.90
16929;DHT22;8581;47.334;11.190;2023-07-02T14:36:44;23.70;99.90
16929;DHT22;8581;47.334;11.190;2023-07-02T14:39:15;23.30;99.90
16929;DHT22;8581;47.334;11.190;2023-07-02T14:41:47;23.10;99.90
16929;DHT22;8581;47.334;11.190;2023-07-02T14:44:19;23.40;99.90
16929;DHT22;8581;47.334;11.190;2023-07-02T14:46:50;23.60;99.90
16929;DHT22;8581;47.334;11.190;2023-07-02T14:49:22;23.20;99.90
16929;DHT22;8581;47.334;11.190;2023-07-02T14:51:53;23.40;99.90
16929;DHT22;8581;47.334;11.190;2023-07-02T14:54:25;23.80;99.90
16929;DHT22;8581;47.334;11.190;2023-07-02T14:56:57;24.20;99.90
16929;DHT22;8581;47.334;11.190;2023-07-02T14:59:29;24.60;99.90
16929;DHT22;8581;47.334;11.190;2023-07-02T15:02:01;24.70;99.90
16929;DHT22;8581;47.334;11.190;2023-07-02T15:04:32;26.00;99.90
16929;DHT22;8581;47.334;11.190;2023-07-02T15:07:04;27.30;99.20
16929;DHT22;8581;47.334;11.190;2023-07-02T15:09:36;26.60;99.20
16929;DHT22;8581;47.334;11.190;2023-07-02T15:12:08;27.10;98.60
16929;DHT22;8581;47.334;11.190;2023-07-02T15:14:39;26.90;99.00
16929;DHT22;8581;47.334;11.190;2023-07-02T15:17:11;26.60;99.10
16929;DHT22;8581;47.334;11.190;2023-07-02T15:19:44;25.80;99.70
16929;DHT22;8581;47.334;11.190;2023-07-02T15:22:17;25.40;99.90
16929;DHT22;8581;47.334;11.190;2023-07-02T15:24:48;25.50;99.90
16929;DHT22;8581;47.334;11.190;2023-07-02T15:27:20;24.90;99.90
16929;DHT22;8581;47.334;11.190;2023-07-02T15:29:51;24.80;99.90
16929;DHT22;8581;47.334;11.190;2023-07-02T15:32:23;24.30;99.90
16929;DHT22;8581;47.334;11.190;2023-07-02T15:34:55;24.00;99.90
16929;DHT22;8581;47.334;11.190;2023-07-02T15:37:26;25.10;99.90
16929;DHT22;8581;47.334;11.190;2023-07-02T15:39:58;25.90;99.90
16929;DHT22;8581;47.334;11.190;2023-07-02T15:42:29;26.70;99.90
16929;DHT22;8581;47.334;11.190;2023-07-02T15:45:01;27.40;99.30
16929;DHT22;8581;47.334;11.190;2023-07-02T15:47:33;27.10;98.90
16929;DHT22;8581;47.334;11.190;2023-07-02T15:50:05;25.70;99.90
16929;DHT22;8581;47.334;11.190;2023-07-02T15:52:37;24.80;99.90
16929;DHT22;8581;47.334;11.190;2023-07-02T15:55:08;26.30;99.90
16929;DHT22;8581;47.334;11.190;2023-07-02T15:57:40;26.10;99.20
16929;DHT22;8581;47.334;11.190;2023-07-02T16:00:12;25.00;99.90